createdAt,value
2023-05-20T00:02:06.928Z,63.05
2023-05-20T00:04:33.588Z,62.92
2023-05-20T00:07:00.332Z,63.18
2023-05-20T00:09:26.969Z,62.89
2023-05-20T00:11:53.549Z,63.00
2023-05-20T00:14:20.187Z,62.78
2023-05-20T00:16:47.040Z,62.83
2023-05-20T00:19:13.814Z,62.80
2023-05-20T00:21:40.540Z,62.71
2023-05-20T00:24:07.311Z,62.58
2023-05-20T00:26:33.955Z,62.27
2023-05-20T00:29:00.546Z,62.29
2023-05-20T00:31:27.261Z,62.28
2023-05-20T00:33:53.928Z,62.45
2023-05-20T00:36:20.595Z,62.46
2023-05-20T00:38:47.414Z,62.62
2023-05-20T00:41:14.037Z,62.67
2023-05-20T00:43:40.671Z,62.79
2023-05-20T00:46:07.652Z,62.94
2023-05-20T00:48:44.660Z,63.41
2023-05-20T00:51:13.227Z,63.04
2023-05-20T00:53:40.466Z,63.02
2023-05-20T00:56:08.941Z,63.00
2023-05-20T00:58:37.239Z,63.21
2023-05-20T01:01:05.664Z,63.24
2023-05-20T01:03:33.224Z,63.03
2023-05-20T01:06:00.414Z,62.86
2023-05-20T01:08:27.549Z,62.80
2023-05-20T01:11:08.161Z,62.78
2023-05-20T01:13:46.979Z,62.49
2023-05-20T01:16:17.934Z,62.70
2023-05-20T01:18:47.258Z,62.42
2023-05-20T01:21:15.500Z,62.60
2023-05-20T01:23:42.276Z,62.65
2023-05-20T01:26:09.803Z,62.60
2023-05-20T01:28:37.438Z,62.89
2023-05-20T01:31:07.667Z,62.67
2023-05-20T01:33:36.547Z,62.71
2023-05-20T01:36:03.791Z,62.72
2023-05-20T01:38:31.670Z,62.84
2023-05-20T01:40:59.582Z,62.94
2023-05-20T01:43:27.380Z,62.75
2023-05-20T01:45:54.175Z,63.03
2023-05-20T01:48:21.429Z,63.02
2023-05-20T01:50:48.227Z,62.84
2023-05-20T01:53:16.666Z,62.65
2023-05-20T01:55:43.455Z,62.66
2023-05-20T01:58:10.139Z,62.68
2023-05-20T02:00:36.835Z,62.65
2023-05-20T02:03:04.187Z,62.33
2023-05-20T02:05:30.925Z,62.45
2023-05-20T02:07:58.193Z,62.41
2023-05-20T02:10:25.164Z,62.66
2023-05-20T02:12:51.856Z,62.66
2023-05-20T02:15:18.613Z,62.88
2023-05-20T02:17:46.587Z,62.86
2023-05-20T02:20:14.304Z,63.09
2023-05-20T02:22:41.038Z,63.01
2023-05-20T02:25:08.286Z,62.83
2023-05-20T02:27:34.901Z,62.92
2023-05-20T02:30:01.784Z,63.30
2023-05-20T02:32:28.506Z,63.39
2023-05-20T02:34:55.856Z,63.67
2023-05-20T02:37:22.723Z,63.64
2023-05-20T02:39:49.394Z,63.92
2023-05-20T02:42:16.156Z,64.03
2023-05-20T02:44:43.504Z,63.98
2023-05-20T02:47:10.594Z,64.20
2023-05-20T02:49:37.284Z,64.03
2023-05-20T02:52:04.124Z,64.13
2023-05-20T02:54:30.759Z,64.08
2023-05-20T02:56:57.907Z,64.51
2023-05-20T02:59:24.552Z,64.42
2023-05-20T03:01:51.253Z,64.46
2023-05-20T03:04:18.383Z,64.13
2023-05-20T03:06:45.915Z,63.95
2023-05-20T03:09:12.586Z,64.06
2023-05-20T03:11:39.824Z,63.82
2023-05-20T03:14:06.512Z,63.93
2023-05-20T03:16:33.610Z,64.05
2023-05-20T03:19:00.346Z,64.14
2023-05-20T03:21:27.081Z,64.27
2023-05-20T03:23:53.999Z,64.32
2023-05-20T03:26:20.705Z,64.39
2023-05-20T03:28:47.344Z,64.34
2023-05-20T03:31:14.337Z,64.27
2023-05-20T03:33:41.142Z,64.45
2023-05-20T03:36:08.404Z,64.64
2023-05-20T03:38:35.241Z,64.67
2023-05-20T03:41:02.057Z,64.65
2023-05-20T03:43:28.748Z,64.86
2023-05-20T03:45:55.371Z,64.82
2023-05-20T03:48:22.686Z,64.78
2023-05-20T03:50:49.779Z,64.88
2023-05-20T03:53:16.699Z,64.75
2023-05-20T03:55:43.377Z,64.82
2023-05-20T03:58:13.766Z,64.67
2023-05-20T04:00:40.872Z,64.39
2023-05-20T04:03:07.598Z,64.10
2023-05-20T04:05:36.298Z,63.94
2023-05-20T04:08:05.983Z,64.09
2023-05-20T04:10:33.038Z,64.32
2023-05-20T04:12:59.909Z,64.53
2023-05-20T04:15:26.616Z,64.48
2023-05-20T04:17:55.932Z,64.55
2023-05-20T04:20:22.806Z,64.70
2023-05-20T04:22:50.777Z,64.70
2023-05-20T04:25:17.653Z,65.09
2023-05-20T04:27:44.398Z,65.01
2023-05-20T04:30:11.892Z,64.94
2023-05-20T04:32:41.235Z,64.99
2023-05-20T04:35:08.250Z,65.19
2023-05-20T04:37:35.349Z,64.87
2023-05-20T04:40:01.988Z,64.93
2023-05-20T04:42:29.080Z,64.98
2023-05-20T04:44:55.950Z,65.20
2023-05-20T04:47:23.793Z,65.09
2023-05-20T04:49:52.038Z,65.12
2023-05-20T04:52:18.731Z,65.38
2023-05-20T04:54:45.445Z,65.50
2023-05-20T04:57:14.612Z,65.38
2023-05-20T04:59:41.303Z,65.68
2023-05-20T05:02:07.989Z,65.56
2023-05-20T05:04:34.636Z,65.34
2023-05-20T05:07:01.365Z,65.58
2023-05-20T05:09:28.092Z,65.42
2023-05-20T05:11:54.929Z,65.71
2023-05-20T05:14:21.543Z,65.44
2023-05-20T05:16:48.233Z,65.14
2023-05-20T05:19:15.681Z,65.12
2023-05-20T05:21:42.931Z,65.10
2023-05-20T05:24:09.612Z,65.10
2023-05-20T05:26:36.417Z,64.89
2023-05-20T05:29:03.548Z,64.57
2023-05-20T05:31:30.200Z,64.69
2023-05-20T05:33:56.935Z,64.51
2023-05-20T05:36:24.401Z,64.66
2023-05-20T05:38:51.061Z,64.85
2023-05-20T05:41:17.925Z,64.81
2023-05-20T05:43:44.650Z,64.68
2023-05-20T05:46:11.960Z,64.72
2023-05-20T05:48:38.664Z,64.97
2023-05-20T05:51:05.550Z,65.03
2023-05-20T05:53:33.503Z,64.54
2023-05-20T05:56:00.183Z,64.26
2023-05-20T05:58:26.916Z,64.34
2023-05-20T06:00:54.296Z,63.96
2023-05-20T06:03:21.030Z,63.87
2023-05-20T06:05:47.833Z,63.88
2023-05-20T06:08:14.660Z,64.00
2023-05-20T06:10:41.551Z,63.69
2023-05-20T06:13:08.206Z,63.61
2023-05-20T06:15:35.037Z,63.32
2023-05-20T06:18:02.925Z,62.20
2023-05-20T06:20:30.593Z,63.23
2023-05-20T06:22:57.246Z,63.09
2023-05-20T06:25:29.677Z,63.05
2023-05-20T06:27:56.366Z,63.02
2023-05-20T06:30:24.200Z,62.95
2023-05-20T06:32:50.903Z,63.23
2023-05-20T06:35:17.820Z,63.32
2023-05-20T06:37:44.594Z,63.81
2023-05-20T06:40:12.598Z,63.77
2023-05-20T06:42:39.271Z,63.53
2023-05-20T06:45:06.598Z,63.45
2023-05-20T06:47:56.117Z,63.22
2023-05-20T06:50:22.814Z,63.22
2023-05-20T06:52:49.513Z,63.14
2023-05-20T06:55:16.196Z,63.38
2023-05-20T06:57:43.196Z,63.40
2023-05-20T07:00:10.519Z,63.49
2023-05-20T07:02:41.694Z,63.44
2023-05-20T07:05:08.986Z,63.17
2023-05-20T07:07:35.982Z,62.56
2023-05-20T07:10:02.866Z,62.77
2023-05-20T07:12:29.519Z,62.90
2023-05-20T07:14:56.157Z,62.50
2023-05-20T07:17:22.903Z,62.32
2023-05-20T07:19:50.822Z,60.28
2023-05-20T07:22:18.657Z,60.02
2023-05-20T07:24:56.054Z,60.35
2023-05-20T07:27:22.832Z,60.62
2023-05-20T07:29:49.562Z,61.16
2023-05-20T07:32:16.991Z,60.30
2023-05-20T07:34:44.762Z,61.11
2023-05-20T07:37:11.639Z,60.63
2023-05-20T07:39:39.019Z,60.16
2023-05-20T07:42:06.848Z,59.99
2023-05-20T07:44:33.742Z,59.28
2023-05-20T07:47:00.909Z,58.70
2023-05-20T07:49:27.642Z,58.56
2023-05-20T07:51:54.657Z,56.78
2023-05-20T07:54:21.279Z,56.67
2023-05-20T07:56:50.338Z,56.79
2023-05-20T07:59:18.267Z,56.85
2023-05-20T08:01:47.981Z,57.13
2023-05-20T08:04:17.306Z,56.01
2023-05-20T08:06:45.207Z,54.87
2023-05-20T08:09:17.520Z,53.12
2023-05-20T08:11:48.769Z,53.63
2023-05-20T08:14:16.032Z,54.38
2023-05-20T08:16:45.012Z,53.78
2023-05-20T08:19:11.859Z,53.45
2023-05-20T08:21:38.687Z,53.34
2023-05-20T08:24:06.487Z,52.43
2023-05-20T08:26:33.212Z,53.35
2023-05-20T08:28:59.851Z,54.12
2023-05-20T08:31:26.638Z,52.80
2023-05-20T08:33:53.300Z,53.17
2023-05-20T08:36:19.941Z,53.48
2023-05-20T08:38:46.742Z,53.86
2023-05-20T08:41:13.482Z,54.01
2023-05-20T08:43:43.804Z,53.95
2023-05-20T08:46:10.875Z,53.01
2023-05-20T08:48:39.011Z,54.77
2023-05-20T08:51:09.762Z,53.80
2023-05-20T08:53:36.432Z,51.74
2023-05-20T08:56:03.730Z,51.09
2023-05-20T08:58:31.069Z,52.08
2023-05-20T09:00:57.668Z,51.61
2023-05-20T09:03:24.718Z,51.72
2023-05-20T09:05:52.713Z,51.44
2023-05-20T09:08:20.201Z,52.58
2023-05-20T09:10:46.829Z,52.09
2023-05-20T09:13:13.429Z,52.25
2023-05-20T09:15:40.074Z,51.94
2023-05-20T09:18:08.145Z,52.05
2023-05-20T09:20:36.846Z,52.37
2023-05-20T09:23:05.873Z,48.88
2023-05-20T09:25:33.356Z,48.93
2023-05-20T09:28:00.216Z,48.09
2023-05-20T09:30:26.950Z,49.30
2023-05-20T09:32:59.060Z,48.20
2023-05-20T09:35:27.724Z,47.50
2023-05-20T09:37:58.568Z,46.82
2023-05-20T09:40:27.247Z,46.78
2023-05-20T09:42:57.548Z,44.69
2023-05-20T09:45:24.207Z,46.45
2023-05-20T09:47:52.051Z,47.27
2023-05-20T09:50:20.315Z,47.14
2023-05-20T09:52:47.808Z,46.51
2023-05-20T09:55:15.347Z,46.58
2023-05-20T09:57:42.285Z,46.87
2023-05-20T10:00:09.472Z,46.01
2023-05-20T10:02:51.983Z,45.67
2023-05-20T10:05:32.343Z,46.05
2023-05-20T10:08:16.875Z,47.04
2023-05-20T10:11:12.327Z,46.48
2023-05-20T10:13:53.651Z,46.15
2023-05-20T10:16:38.976Z,43.88
2023-05-20T10:19:27.524Z,45.60
2023-05-20T10:22:08.671Z,44.84
2023-05-20T10:24:37.583Z,45.64
2023-05-20T10:27:08.360Z,44.50
2023-05-20T10:29:43.800Z,44.65
2023-05-20T10:32:10.650Z,46.19
2023-05-20T10:34:48.894Z,45.36
2023-05-20T10:37:24.636Z,45.10
2023-05-20T10:39:51.529Z,44.63
2023-05-20T10:42:28.500Z,43.51
2023-05-20T10:44:55.136Z,42.22
2023-05-20T10:47:26.067Z,42.52
2023-05-20T10:49:53.186Z,43.32
2023-05-20T10:52:20.569Z,41.02
2023-05-20T10:54:54.647Z,41.91
2023-05-20T10:57:22.172Z,41.90
2023-05-20T10:59:49.779Z,41.13
2023-05-20T11:02:18.613Z,40.57
2023-05-20T11:04:46.294Z,41.22
2023-05-20T11:07:13.439Z,41.38
2023-05-20T11:09:40.142Z,38.19
2023-05-20T11:12:07.061Z,39.93
2023-05-20T11:14:35.617Z,39.36
2023-05-20T11:17:02.352Z,39.90
2023-05-20T11:19:29.162Z,40.68
2023-05-20T11:21:55.991Z,39.49
2023-05-20T11:24:25.629Z,40.02
2023-05-20T11:26:52.585Z,39.83
2023-05-20T11:29:19.827Z,40.36
2023-05-20T11:31:50.614Z,40.35
2023-05-20T11:34:21.787Z,40.39
2023-05-20T11:36:56.884Z,40.88
2023-05-20T11:39:23.603Z,39.13
2023-05-20T11:41:50.597Z,40.57
2023-05-20T11:44:20.194Z,39.68
2023-05-20T11:46:48.283Z,39.75
2023-05-20T11:49:15.784Z,39.94
2023-05-20T11:51:43.959Z,38.55
2023-05-20T11:54:10.594Z,37.08
2023-05-20T11:56:38.544Z,36.21
2023-05-20T11:59:05.964Z,37.62
2023-05-20T12:01:35.397Z,36.89
2023-05-20T12:04:02.283Z,36.71
2023-05-20T12:06:29.114Z,35.14
2023-05-20T12:08:55.803Z,35.59
2023-05-20T12:11:22.440Z,37.01
2023-05-20T12:13:49.355Z,36.34
2023-05-20T12:16:16.101Z,36.25
2023-05-20T12:18:42.830Z,36.80
2023-05-20T12:21:09.593Z,36.98
2023-05-20T12:23:36.228Z,36.67
2023-05-20T12:26:03.151Z,37.55
2023-05-20T12:28:29.764Z,38.00
2023-05-20T12:30:56.348Z,38.10
2023-05-20T12:33:22.926Z,38.31
2023-05-20T12:35:49.596Z,39.05
2023-05-20T12:38:16.183Z,38.63
2023-05-20T12:40:43.005Z,39.60
2023-05-20T12:43:09.852Z,39.59
2023-05-20T12:45:36.489Z,40.39
2023-05-20T12:48:04.950Z,39.50
2023-05-20T12:50:31.582Z,39.72
2023-05-20T12:52:58.213Z,38.37
2023-05-20T12:55:24.976Z,37.94
2023-05-20T12:57:51.591Z,37.23
2023-05-20T13:00:18.313Z,38.33
2023-05-20T13:02:45.215Z,37.55
2023-05-20T13:05:12.272Z,36.09
2023-05-20T13:07:39.153Z,38.10
2023-05-20T13:10:07.222Z,37.41
2023-05-20T13:12:35.513Z,35.66
2023-05-20T13:15:02.980Z,36.99
2023-05-20T13:17:30.056Z,38.17
2023-05-20T13:19:56.778Z,37.42
2023-05-20T13:22:23.485Z,37.13
2023-05-20T13:24:50.288Z,37.37
2023-05-20T13:27:17.031Z,38.00
2023-05-20T13:29:43.760Z,38.22
2023-05-20T13:32:10.633Z,38.79
2023-05-20T13:34:37.489Z,37.88
2023-05-20T13:37:04.778Z,35.43
2023-05-20T13:39:31.795Z,36.32
2023-05-20T13:41:58.961Z,35.35
2023-05-20T13:44:25.592Z,35.60
2023-05-20T13:46:52.344Z,35.46
2023-05-20T13:49:19.162Z,34.22
2023-05-20T13:51:45.864Z,34.57
2023-05-20T13:54:12.503Z,34.29
2023-05-20T13:56:39.337Z,34.89
2023-05-20T13:59:06.108Z,35.04
2023-05-20T14:01:33.053Z,35.53
2023-05-20T14:03:59.914Z,36.10
2023-05-20T14:06:27.200Z,36.39
2023-05-20T14:08:55.041Z,36.87
2023-05-20T14:11:21.798Z,36.78
2023-05-20T14:13:48.529Z,35.49
2023-05-20T14:16:15.451Z,35.58
2023-05-20T14:18:42.194Z,36.80
2023-05-20T14:21:08.853Z,36.13
2023-05-20T14:23:35.602Z,36.26
2023-05-20T14:26:02.197Z,35.45
2023-05-20T14:28:28.843Z,35.24
2023-05-20T14:30:55.518Z,34.76
2023-05-20T14:33:22.185Z,33.69
2023-05-20T14:35:48.833Z,34.58
2023-05-20T14:38:16.190Z,33.34
2023-05-20T14:40:42.826Z,33.06
2023-05-20T14:43:09.480Z,33.25
2023-05-20T14:45:36.111Z,32.88
2023-05-20T14:48:02.798Z,32.32
2023-05-20T14:50:29.520Z,33.27
2023-05-20T14:52:56.176Z,33.62
2023-05-20T14:55:22.772Z,32.74
2023-05-20T14:57:49.577Z,32.74
2023-05-20T15:00:16.560Z,32.64
2023-05-20T15:02:43.384Z,32.47
2023-05-20T15:05:10.096Z,33.28
2023-05-20T15:07:36.782Z,34.03
2023-05-20T15:10:03.959Z,32.44
2023-05-20T15:12:30.632Z,33.67
2023-05-20T15:14:57.259Z,32.90
2023-05-20T15:17:23.981Z,33.83
2023-05-20T15:19:50.635Z,33.72
2023-05-20T15:22:17.322Z,32.28
2023-05-20T15:24:43.919Z,31.40
2023-05-20T15:27:10.587Z,32.32
2023-05-20T15:29:38.711Z,31.92
2023-05-20T15:32:06.629Z,31.82
2023-05-20T15:34:33.994Z,32.00
2023-05-20T15:37:00.688Z,32.85
2023-05-20T15:39:27.327Z,32.48
2023-05-20T15:41:54.125Z,33.48
2023-05-20T15:44:20.748Z,33.60
2023-05-20T15:46:47.586Z,32.97
2023-05-20T15:49:14.362Z,33.55
2023-05-20T15:51:44.520Z,32.83
2023-05-20T15:54:15.906Z,33.98
2023-05-20T15:56:42.516Z,33.71
2023-05-20T15:59:09.134Z,34.13
2023-05-20T16:01:35.786Z,33.33
2023-05-20T16:04:02.604Z,33.60
2023-05-20T16:06:29.336Z,34.28
2023-05-20T16:08:55.962Z,33.44
2023-05-20T16:11:23.212Z,33.83
2023-05-20T16:13:49.872Z,33.77
2023-05-20T16:16:16.663Z,33.30
2023-05-20T16:18:43.525Z,32.46
2023-05-20T16:21:13.115Z,32.63
2023-05-20T16:23:39.809Z,33.45
2023-05-20T16:26:06.439Z,32.87
2023-05-20T16:28:33.081Z,32.92
2023-05-20T16:30:59.700Z,33.24
2023-05-20T16:33:26.399Z,34.06
2023-05-20T16:35:53.028Z,33.75
2023-05-20T16:38:19.888Z,34.03
2023-05-20T16:40:46.525Z,34.16
2023-05-20T16:43:13.322Z,35.08
2023-05-20T16:45:40.161Z,35.20
2023-05-20T16:48:06.897Z,35.87
2023-05-20T16:50:33.761Z,36.05
2023-05-20T16:53:00.517Z,36.47
2023-05-20T16:55:27.118Z,36.70
2023-05-20T16:57:53.773Z,37.29
2023-05-20T17:00:20.429Z,37.45
2023-05-20T17:02:47.168Z,37.34
2023-05-20T17:05:16.668Z,38.02
2023-05-20T17:07:43.563Z,38.61
2023-05-20T17:10:10.652Z,38.88
2023-05-20T17:12:37.268Z,38.94
2023-05-20T17:15:04.008Z,38.98
2023-05-20T17:17:30.732Z,39.20
2023-05-20T17:19:57.480Z,39.44
2023-05-20T17:22:24.136Z,39.82
2023-05-20T17:24:50.839Z,39.50
2023-05-20T17:27:17.471Z,40.08
2023-05-20T17:29:44.090Z,40.12
2023-05-20T17:32:10.830Z,40.31
2023-05-20T17:34:37.577Z,40.51
2023-05-20T17:37:04.497Z,40.75
2023-05-20T17:39:31.138Z,41.29
2023-05-20T17:41:57.850Z,41.03
2023-05-20T17:44:24.495Z,41.44
2023-05-20T17:46:51.188Z,41.76
2023-05-20T17:49:17.857Z,41.83
2023-05-20T17:51:44.588Z,41.90
2023-05-20T17:54:11.327Z,42.00
2023-05-20T17:56:37.925Z,42.25
2023-05-20T17:59:04.576Z,42.32
2023-05-20T18:01:31.218Z,42.45
2023-05-20T18:03:57.961Z,42.52
2023-05-20T18:06:24.930Z,42.74
2023-05-20T18:08:51.582Z,42.76
2023-05-20T18:11:18.265Z,42.91
2023-05-20T18:13:44.958Z,43.35
2023-05-20T18:16:11.640Z,43.34
2023-05-20T18:18:38.276Z,43.92
2023-05-20T18:21:05.240Z,44.14
2023-05-20T18:23:31.832Z,43.99
2023-05-20T18:25:58.539Z,44.25
2023-05-20T18:28:25.205Z,44.62
2023-05-20T18:30:51.832Z,44.82
2023-05-20T18:33:18.505Z,44.81
2023-05-20T18:35:45.115Z,44.64
2023-05-20T18:38:11.800Z,44.87
2023-05-20T18:40:38.555Z,45.27
2023-05-20T18:43:05.175Z,45.47
2023-05-20T18:45:31.804Z,45.80
2023-05-20T18:47:58.581Z,46.10
2023-05-20T18:50:25.542Z,46.23
2023-05-20T18:52:52.331Z,46.24
2023-05-20T18:55:19.356Z,46.63
2023-05-20T18:57:45.967Z,46.81
2023-05-20T19:00:13.220Z,46.81
2023-05-20T19:02:40.661Z,47.12
2023-05-20T19:05:09.168Z,47.16
2023-05-20T19:07:35.955Z,47.56
2023-05-20T19:10:03.123Z,47.70
2023-05-20T19:12:29.829Z,47.80
2023-05-20T19:14:56.555Z,47.80
2023-05-20T19:17:23.692Z,48.22
2023-05-20T19:19:50.636Z,48.23
2023-05-20T19:22:17.359Z,48.36
2023-05-20T19:24:43.969Z,48.21
2023-05-20T19:27:10.744Z,48.43
2023-05-20T19:29:37.382Z,48.62
2023-05-20T19:32:04.316Z,48.49
2023-05-20T19:34:31.073Z,48.92
2023-05-20T19:36:57.683Z,48.76
2023-05-20T19:39:24.519Z,49.08
2023-05-20T19:41:51.133Z,49.17
2023-05-20T19:44:17.912Z,49.01
2023-05-20T19:46:44.670Z,49.34
2023-05-20T19:49:11.478Z,49.42
2023-05-20T19:51:38.111Z,49.65
2023-05-20T19:54:04.753Z,49.42
2023-05-20T19:56:31.428Z,49.55
2023-05-20T19:58:58.044Z,49.76
2023-05-20T20:01:24.689Z,49.91
2023-05-20T20:03:51.477Z,49.54
2023-05-20T20:06:18.093Z,49.71
2023-05-20T20:08:44.757Z,49.82
2023-05-20T20:11:12.990Z,49.66
2023-05-20T20:13:39.705Z,49.92
2023-05-20T20:16:06.975Z,50.17
2023-05-20T20:18:33.794Z,50.39
2023-05-20T20:21:00.469Z,50.16
2023-05-20T20:23:27.462Z,50.56
2023-05-20T20:25:54.076Z,50.46
2023-05-20T20:28:21.443Z,50.68
2023-05-20T20:30:48.079Z,50.42
2023-05-20T20:33:14.818Z,50.88
2023-05-20T20:35:41.422Z,50.65
2023-05-20T20:38:08.146Z,50.62
2023-05-20T20:40:38.916Z,51.06
2023-05-20T20:43:06.515Z,50.82
2023-05-20T20:45:34.530Z,50.91
2023-05-20T20:48:01.525Z,50.64
2023-05-20T20:50:28.249Z,51.16
2023-05-20T20:52:54.883Z,51.02
2023-05-20T20:55:21.550Z,51.24
2023-05-20T20:57:48.163Z,51.47
2023-05-20T21:00:14.950Z,51.48
2023-05-20T21:02:41.922Z,51.59
2023-05-20T21:05:08.889Z,51.62
2023-05-20T21:07:35.492Z,51.64
2023-05-20T21:10:02.298Z,51.51
2023-05-20T21:12:28.888Z,51.83
2023-05-20T21:14:55.496Z,51.99
2023-05-20T21:17:22.099Z,52.05
2023-05-20T21:19:48.766Z,52.05
2023-05-20T21:22:15.437Z,51.82
2023-05-20T21:24:42.113Z,52.22
2023-05-20T21:27:08.757Z,52.02
2023-05-20T21:29:36.151Z,52.26
2023-05-20T21:32:03.970Z,52.21
2023-05-20T21:34:30.594Z,51.98
2023-05-20T21:36:57.442Z,52.01
2023-05-20T21:39:24.100Z,52.03
2023-05-20T21:41:50.767Z,52.15
2023-05-20T21:44:17.472Z,52.10
2023-05-20T21:46:44.179Z,52.34
2023-05-20T21:49:10.885Z,52.44
2023-05-20T21:51:37.498Z,52.23
2023-05-20T21:54:04.229Z,52.56
2023-05-20T21:56:30.840Z,52.57
2023-05-20T21:58:57.434Z,52.58
2023-05-20T22:01:24.078Z,52.57
2023-05-20T22:03:51.702Z,52.75
2023-05-20T22:06:18.730Z,52.55
2023-05-20T22:08:45.397Z,52.49
2023-05-20T22:11:12.115Z,52.36
2023-05-20T22:13:38.716Z,52.36
2023-05-20T22:16:05.634Z,52.23
2023-05-20T22:18:32.459Z,52.25
2023-05-20T22:20:59.438Z,51.89
2023-05-20T22:23:27.396Z,52.03
2023-05-20T22:25:54.507Z,51.95
2023-05-20T22:28:21.296Z,51.81
2023-05-20T22:30:47.935Z,51.80
2023-05-20T22:33:14.547Z,51.93
2023-05-20T22:35:41.364Z,51.63
2023-05-20T22:38:08.215Z,51.54
2023-05-20T22:40:34.900Z,51.74
2023-05-20T22:43:01.586Z,51.67
2023-05-20T22:45:28.292Z,51.54
2023-05-20T22:47:54.935Z,51.61
2023-05-20T22:50:21.801Z,51.37
2023-05-20T22:52:48.475Z,51.58
2023-05-20T22:55:15.158Z,51.49
2023-05-20T22:57:41.783Z,51.58
2023-05-20T23:00:09.020Z,51.39
2023-05-20T23:02:35.764Z,51.65
2023-05-20T23:05:02.379Z,51.35
2023-05-20T23:07:28.976Z,51.48
2023-05-20T23:09:55.670Z,51.45
2023-05-20T23:12:22.280Z,51.58
2023-05-20T23:14:48.897Z,51.43
2023-05-20T23:17:15.522Z,51.40
2023-05-20T23:19:42.144Z,51.65
2023-05-20T23:22:08.840Z,51.48
2023-05-20T23:24:35.519Z,51.67
2023-05-20T23:27:02.186Z,51.48
2023-05-20T23:29:28.785Z,51.59
2023-05-20T23:31:55.452Z,51.60
2023-05-20T23:34:22.090Z,51.51
2023-05-20T23:36:48.754Z,51.48
2023-05-20T23:39:17.521Z,51.54
2023-05-20T23:41:45.021Z,51.73
2023-05-20T23:44:11.801Z,51.58
2023-05-20T23:46:38.646Z,51.69
2023-05-20T23:49:05.589Z,51.71
2023-05-20T23:51:32.413Z,51.46
2023-05-20T23:53:59.025Z,51.53
2023-05-20T23:56:25.627Z,51.55
2023-05-20T23:58:52.382Z,51.49
